Flight Track Log - Related Links

Times and Time Zones

All times are in EDT time to prevent confusion due to time zone crossing. See the DAL3926 flight status page for this flight to view local times or setup timezone preferences in your user account.

Time Position Orientation Groundspeed Altitude Reporting Facility
EDT Latitude Longitude Course Direction KTS MPH feet Rate Location/Type
Fri 01:16:08 PM 44.9064 -93.2311 45° Northeast 138 159 2,500  Level FAA TRACON SMA TRACON (SMA)
Fri 01:16:28 PM 44.9181 -93.2350 347° North 138 159 2,900 1,500 Climbing FAA TRACON SMA TRACON (SMA)
Fri 01:16:48 PM 44.9361 -93.2411 347° North 167 192 3,500 2,550 Climbing FAA TRACON SMA TRACON (SMA)
Fri 01:17:08 PM 44.9511 -93.2461 347° North 180 207 4,600 3,150 Climbing FAA TRACON SMA TRACON (SMA)
Fri 01:17:28 PM 44.9697 -93.2536 344° North 180 207 5,600 2,000 Climbing FAA TRACON SMA TRACON (SMA)
Fri 01:17:47 PM 44.9881 -93.2542 359° North 203 234 5,900 1,692 Climbing FAA TRACON SMA TRACON (SMA)
Fri 01:18:00 PM 45.0819 -93.3281 332° Northwest  Level FlightAware Approximate
Fri 01:18:07 PM 45.0083 -93.2508 North 232 267 6,700  Level FAA TRACON SMA TRACON (SMA)
Fri 01:18:27 PM 45.0283 -93.2478 North 239 275 7,700 3,220 Climbing FAA TRACON SMA TRACON (SMA)
Fri 01:18:48 PM 45.0542 -93.2442 North 241 277 8,900 2,780 Climbing FAA TRACON SMA TRACON (SMA)
Fri 01:19:00 PM 45.1465 -93.3483 45° Northeast  Level FlightAware Approximate
Fri 01:19:08 PM 45.0750 -93.2411 North 243 280 9,600  Level FAA TRACON SMA TRACON (SMA)
Fri 01:19:28 PM 45.0961 -93.2378 North 247 284 10,500 2,550 Climbing FAA TRACON SMA TRACON (SMA)
Fri 01:19:48 PM 45.1222 -93.2336 North 247 284 11,300 1,350 Climbing FAA TRACON SMA TRACON (SMA)
Fri 01:20:00 PM 45.2010 -93.2719 45° Northeast  Level FlightAware Approximate
Fri 01:20:08 PM 45.1447 -93.2306 North 258 297 11,400  Level FAA TRACON SMA TRACON (SMA)
Fri 01:20:48 PM 45.2006 -93.2244 North 293 337 12,600 1,800 Climbing FAA TRACON SMA TRACON (SMA)
Fri 01:21:00 PM 45.2572 -93.1922 45° Northeast  Level FlightAware Approximate
Fri 01:21:08 PM 45.2261 -93.2211 North 298 343 13,200  Level FAA TRACON SMA TRACON (SMA)
Fri 01:21:28 PM 45.2519 -93.2133 12° North 306 352 13,600 1,024 Climbing FAA TRACON SMA TRACON (SMA)
Fri 01:21:49 PM 45.2836 -93.1939 23° Northeast 318 366 13,900 585 Climbing FAA TRACON SMA TRACON (SMA)
Fri 01:22:09 PM 45.3097 -93.1778 23° Northeast 327 376 14,000 154 Climbing FAA TRACON SMA TRACON (SMA)
Fri 01:22:28 PM 45.3364 -93.1617 23° Northeast 334 384 14,000  Level FAA TRACON SMA TRACON (SMA)
Fri 01:22:48 PM 45.3700 -93.1406 24° Northeast 341 392 14,000  Level FAA TRACON SMA TRACON (SMA)
Fri 01:23:08 PM 45.3967 -93.1200 28° Northeast 349 402 14,000  Level FAA TRACON SMA TRACON (SMA)
Fri 01:23:28 PM 45.4244 -93.1067 19° North 347 399 14,000  Level FAA TRACON SMA TRACON (SMA)
Fri 01:23:48 PM 45.4586 -93.0847 24° Northeast 350 403 14,000  Level FAA TRACON SMA TRACON (SMA)
Fri 01:24:08 PM 45.4864 -93.0681 23° Northeast 349 402 14,000  Level FAA TRACON SMA TRACON (SMA)
Fri 01:24:28 PM 45.5142 -93.0522 22° Northeast 351 404 14,000  Level FAA TRACON SMA TRACON (SMA)
Fri 01:24:49 PM 45.5489 -93.0303 24° Northeast 353 406 14,000  Level FAA TRACON SMA TRACON (SMA)
Fri 01:25:08 PM 45.5767 -93.0122 24° Northeast 354 407 14,000  Level FAA TRACON SMA TRACON (SMA)
Fri 01:25:27 PM 45.6044 -92.9953 23° Northeast 354 407 14,000  Level FAA TRACON SMA TRACON (SMA)
Fri 01:25:47 PM 45.6322 -92.9775 24° Northeast 355 409 14,000  Level FAA TRACON SMA TRACON (SMA)
Fri 01:26:08 PM 45.6669 -92.9547 25° Northeast 356 410 14,000  Level FAA TRACON SMA TRACON (SMA)
Fri 01:26:31 PM 45.6950 -92.9375 23° Northeast 356 410 14,000  Level FAA TRACON SMA TRACON (SMA)
Fri 01:26:50 PM 45.7300 -92.9167 23° Northeast 355 409 14,000  Level FAA TRACON SMA TRACON (SMA)
Fri 01:27:07 PM 45.7575 -92.8983 25° Northeast 354 407 14,000  Level FAA TRACON SMA TRACON (SMA)
Fri 01:27:28 PM 45.7856 -92.8811 23° Northeast 354 407 14,000  Level FAA TRACON SMA TRACON (SMA)
Fri 01:27:47 PM 45.8133 -92.8639 23° Northeast 354 407 14,000  Level FAA TRACON SMA TRACON (SMA)
Fri 01:28:07 PM 45.8481 -92.8431 23° Northeast 354 407 14,000  Level FAA TRACON SMA TRACON (SMA)
Fri 01:28:36 PM 45.8817 -92.8158 29° Northeast 354 407 14,000 -132 Level Minneapolis Center
Fri 01:29:38 PM 45.9722 -92.7617 23° Northeast 352 405 13,800 -97 Descending Minneapolis Center
Fri 01:30:40 PM 46.0611 -92.7033 24° Northeast 353 406 13,800 -49 Level Minneapolis Center
Fri 01:31:41 PM 46.1478 -92.6481 24° Northeast 347 399 13,700 -341 Descending Minneapolis Center
Fri 01:32:43 PM 46.2336 -92.5892 25° Northeast 338 389 13,100 -435 Descending Minneapolis Center
Fri 01:33:45 PM 46.2992 -92.4925 46° Northeast 337 388 12,800 -145 Descending Minneapolis Center
Fri 01:34:47 PM 46.3747 -92.3817 45° Northeast 327 376 12,800  Level Minneapolis Center
Fri 01:35:49 PM 46.4375 -92.2958 43° Northeast 317 365 12,800 -290 Level Minneapolis Center
Fri 01:36:51 PM 46.4981 -92.2083 45° Northeast 311 358 12,200 -1,016 Descending Minneapolis Center
Fri 01:37:53 PM 46.5525 -92.1292 45° Northeast 290 334 10,700 -1,452 Descending Minneapolis Center
Fri 01:38:55 PM 46.6019 -92.0619 43° Northeast 256 295 9,200 -1,512 Descending Minneapolis Center
Fri 01:39:56 PM 46.6514 -92.0064 38° Northeast 240 276 7,600 -1,902 Descending Minneapolis Center
Fri 01:40:58 PM 46.7078 -91.9431 38° Northeast 225 259 5,300 -1,839 Descending Minneapolis Center
Fri 01:42:00 PM 46.7569 -91.8889 37° Northeast 223 257 3,800 -1,065 Descending Minneapolis Center
Fri 01:43:02 PM 46.8114 -91.8922 358° North 205 236 3,100 -339 Descending Minneapolis Center
Fri 01:44:04 PM 46.8311 -91.9489 297° West 172 198 3,100  Level Minneapolis Center
Fri 01:45:06 PM 46.8514 -92.0011 300° West 166 191 3,100  Level Minneapolis Center
Fri 01:46:07 PM 46.9058 -91.9889 North 186 214 3,100 49 Level Minneapolis Center
Fri 01:47:09 PM 46.8756 -91.9144 121° Southeast 219 252 3,200  Climbing Minneapolis Center
Fri 01:48:11 PM 46.8208 -91.9608 210° Southwest 242 278 3,100 48 Descending Minneapolis Center
Fri 01:49:13 PM 46.8336 -92.0219 287° West 183 211 3,300 194 Climbing Minneapolis Center

Login

Don't have an account? Register now (free) for customized features, flight alerts, and more!